sensor_id;sensor_type;location;lat;lon;timestamp;P1;durP1;ratioP1;P2;durP2;ratioP2
30000;SDS011;16845;48.670;9.000;2023-09-07T00:02:04;6.70;;;4.90;;
30000;SDS011;16845;48.670;9.000;2023-09-07T00:04:31;7.03;;;5.63;;
30000;SDS011;16845;48.670;9.000;2023-09-07T00:06:58;6.07;;;4.90;;
30000;SDS011;16845;48.670;9.000;2023-09-07T00:09:24;5.88;;;4.75;;
30000;SDS011;16845;48.670;9.000;2023-09-07T00:11:52;9.65;;;5.43;;
30000;SDS011;16845;48.670;9.000;2023-09-07T00:14:18;7.32;;;5.65;;
30000;SDS011;16845;48.670;9.000;2023-09-07T00:16:45;7.32;;;5.82;;
30000;SDS011;16845;48.670;9.000;2023-09-07T00:19:12;6.57;;;5.17;;
30000;SDS011;16845;48.670;9.000;2023-09-07T00:21:38;9.18;;;6.10;;
30000;SDS011;16845;48.670;9.000;2023-09-07T00:24:05;6.18;;;4.85;;
30000;SDS011;16845;48.670;9.000;2023-09-07T00:26:32;9.63;;;5.28;;
30000;SDS011;16845;48.670;9.000;2023-09-07T00:29:00;7.97;;;5.50;;
30000;SDS011;16845;48.670;9.000;2023-09-07T00:31:26;8.23;;;5.80;;
30000;SDS011;16845;48.670;9.000;2023-09-07T00:33:53;6.78;;;5.18;;
30000;SDS011;16845;48.670;9.000;2023-09-07T00:36:19;8.45;;;5.05;;
30000;SDS011;16845;48.670;9.000;2023-09-07T00:38:46;6.20;;;4.72;;
30000;SDS011;16845;48.670;9.000;2023-09-07T00:41:12;7.38;;;5.25;;
30000;SDS011;16845;48.670;9.000;2023-09-07T00:43:39;7.43;;;5.22;;
30000;SDS011;16845;48.670;9.000;2023-09-07T00:46:07;5.88;;;5.20;;
30000;SDS011;16845;48.670;9.000;2023-09-07T00:48:34;9.25;;;5.60;;
30000;SDS011;16845;48.670;9.000;2023-09-07T00:51:01;5.85;;;5.25;;
30000;SDS011;16845;48.670;9.000;2023-09-07T00:53:28;5.83;;;4.73;;
30000;SDS011;16845;48.670;9.000;2023-09-07T00:55:54;7.18;;;5.47;;
30000;SDS011;16845;48.670;9.000;2023-09-07T00:58:21;10.45;;;5.35;;
30000;SDS011;16845;48.670;9.000;2023-09-07T01:00:48;6.13;;;5.15;;
30000;SDS011;16845;48.670;9.000;2023-09-07T01:03:16;8.43;;;5.07;;
30000;SDS011;16845;48.670;9.000;2023-09-07T01:05:43;12.18;;;5.68;;
30000;SDS011;16845;48.670;9.000;2023-09-07T01:08:18;7.47;;;4.70;;
30000;SDS011;16845;48.670;9.000;2023-09-07T01:10:49;6.18;;;5.10;;
30000;SDS011;16845;48.670;9.000;2023-09-07T01:13:15;10.43;;;5.90;;
30000;SDS011;16845;48.670;9.000;2023-09-07T01:15:42;7.07;;;4.90;;
30000;SDS011;16845;48.670;9.000;2023-09-07T01:18:09;7.80;;;5.73;;
30000;SDS011;16845;48.670;9.000;2023-09-07T01:20:51;7.00;;;5.55;;
30000;SDS011;16845;48.670;9.000;2023-09-07T01:23:20;6.68;;;4.97;;
30000;SDS011;16845;48.670;9.000;2023-09-07T01:25:46;7.68;;;5.43;;
30000;SDS011;16845;48.670;9.000;2023-09-07T01:28:14;8.43;;;5.60;;
30000;SDS011;16845;48.670;9.000;2023-09-07T01:30:41;8.17;;;5.23;;
30000;SDS011;16845;48.670;9.000;2023-09-07T01:33:07;6.05;;;4.95;;
30000;SDS011;16845;48.670;9.000;2023-09-07T01:35:34;8.10;;;5.32;;
30000;SDS011;16845;48.670;9.000;2023-09-07T01:38:03;6.57;;;5.18;;
30000;SDS011;16845;48.670;9.000;2023-09-07T01:40:31;5.57;;;4.80;;
30000;SDS011;16845;48.670;9.000;2023-09-07T01:42:57;12.20;;;6.68;;
30000;SDS011;16845;48.670;9.000;2023-09-07T01:45:24;6.10;;;5.50;;
30000;SDS011;16845;48.670;9.000;2023-09-07T01:47:50;7.57;;;5.32;;
30000;SDS011;16845;48.670;9.000;2023-09-07T01:50:17;7.83;;;5.53;;
30000;SDS011;16845;48.670;9.000;2023-09-07T01:52:45;9.40;;;5.53;;
30000;SDS011;16845;48.670;9.000;2023-09-07T01:55:13;9.77;;;5.10;;
30000;SDS011;16845;48.670;9.000;2023-09-07T01:57:40;6.07;;;5.00;;
30000;SDS011;16845;48.670;9.000;2023-09-07T02:00:07;8.57;;;5.88;;
30000;SDS011;16845;48.670;9.000;2023-09-07T02:05:01;7.75;;;5.97;;
30000;SDS011;16845;48.670;9.000;2023-09-07T02:07:27;7.40;;;4.97;;
30000;SDS011;16845;48.670;9.000;2023-09-07T02:09:54;6.03;;;4.93;;
30000;SDS011;16845;48.670;9.000;2023-09-07T02:12:20;8.45;;;4.85;;
30000;SDS011;16845;48.670;9.000;2023-09-07T02:14:48;6.47;;;5.17;;
30000;SDS011;16845;48.670;9.000;2023-09-07T02:17:15;6.60;;;5.10;;
30000;SDS011;16845;48.670;9.000;2023-09-07T02:19:41;10.27;;;4.97;;
30000;SDS011;16845;48.670;9.000;2023-09-07T02:22:08;7.60;;;5.57;;
30000;SDS011;16845;48.670;9.000;2023-09-07T02:24:34;11.43;;;5.95;;
30000;SDS011;16845;48.670;9.000;2023-09-07T02:27:01;8.48;;;6.05;;
30000;SDS011;16845;48.670;9.000;2023-09-07T02:29:27;8.43;;;5.65;;
30000;SDS011;16845;48.670;9.000;2023-09-07T02:31:55;8.90;;;6.40;;
30000;SDS011;16845;48.670;9.000;2023-09-07T02:34:22;8.75;;;6.50;;
30000;SDS011;16845;48.670;9.000;2023-09-07T02:36:48;8.60;;;5.88;;
30000;SDS011;16845;48.670;9.000;2023-09-07T02:39:15;10.00;;;6.60;;
30000;SDS011;16845;48.670;9.000;2023-09-07T02:41:41;12.15;;;5.90;;
30000;SDS011;16845;48.670;9.000;2023-09-07T02:44:08;12.50;;;6.15;;
30000;SDS011;16845;48.670;9.000;2023-09-07T02:46:34;9.48;;;6.43;;
30000;SDS011;16845;48.670;9.000;2023-09-07T02:49:02;8.95;;;5.68;;
30000;SDS011;16845;48.670;9.000;2023-09-07T02:51:29;6.75;;;5.43;;
30000;SDS011;16845;48.670;9.000;2023-09-07T02:53:55;8.52;;;6.03;;
30000;SDS011;16845;48.670;9.000;2023-09-07T02:56:22;8.27;;;6.13;;
30000;SDS011;16845;48.670;9.000;2023-09-07T02:58:48;8.88;;;6.25;;
30000;SDS011;16845;48.670;9.000;2023-09-07T03:01:15;7.53;;;5.78;;
30000;SDS011;16845;48.670;9.000;2023-09-07T03:03:42;10.47;;;6.17;;
30000;SDS011;16845;48.670;9.000;2023-09-07T03:06:10;13.43;;;6.10;;
30000;SDS011;16845;48.670;9.000;2023-09-07T03:08:37;10.30;;;5.53;;
30000;SDS011;16845;48.670;9.000;2023-09-07T03:11:03;8.40;;;6.03;;
30000;SDS011;16845;48.670;9.000;2023-09-07T03:13:30;7.45;;;5.85;;
30000;SDS011;16845;48.670;9.000;2023-09-07T03:15:56;8.05;;;5.57;;
30000;SDS011;16845;48.670;9.000;2023-09-07T03:18:23;7.05;;;6.35;;
30000;SDS011;16845;48.670;9.000;2023-09-07T03:20:50;13.63;;;6.78;;
30000;SDS011;16845;48.670;9.000;2023-09-07T03:23:18;9.38;;;6.35;;
30000;SDS011;16845;48.670;9.000;2023-09-07T03:25:44;7.88;;;6.72;;
30000;SDS011;16845;48.670;9.000;2023-09-07T03:28:11;8.23;;;6.88;;
30000;SDS011;16845;48.670;9.000;2023-09-07T03:30:38;8.38;;;6.45;;
30000;SDS011;16845;48.670;9.000;2023-09-07T03:33:04;7.75;;;6.75;;
30000;SDS011;16845;48.670;9.000;2023-09-07T03:35:31;7.43;;;6.40;;
30000;SDS011;16845;48.670;9.000;2023-09-07T03:37:57;9.23;;;6.70;;
30000;SDS011;16845;48.670;9.000;2023-09-07T03:40:25;8.88;;;7.07;;
30000;SDS011;16845;48.670;9.000;2023-09-07T03:42:52;11.40;;;6.45;;
30000;SDS011;16845;48.670;9.000;2023-09-07T03:45:18;7.00;;;6.00;;
30000;SDS011;16845;48.670;9.000;2023-09-07T03:47:45;10.10;;;6.22;;
30000;SDS011;16845;48.670;9.000;2023-09-07T03:50:11;9.65;;;7.05;;
30000;SDS011;16845;48.670;9.000;2023-09-07T03:52:38;9.13;;;6.85;;
30000;SDS011;16845;48.670;9.000;2023-09-07T03:55:05;9.13;;;6.33;;
30000;SDS011;16845;48.670;9.000;2023-09-07T03:57:33;11.30;;;7.10;;
30000;SDS011;16845;48.670;9.000;2023-09-07T04:00:00;10.60;;;6.47;;
30000;SDS011;16845;48.670;9.000;2023-09-07T04:02:27;10.27;;;6.68;;
30000;SDS011;16845;48.670;9.000;2023-09-07T04:04:54;7.35;;;6.55;;
30000;SDS011;16845;48.670;9.000;2023-09-07T04:07:21;8.70;;;6.22;;
30000;SDS011;16845;48.670;9.000;2023-09-07T04:09:47;7.72;;;6.85;;
30000;SDS011;16845;48.670;9.000;2023-09-07T04:12:14;6.97;;;6.28;;
30000;SDS011;16845;48.670;9.000;2023-09-07T04:14:42;10.23;;;6.20;;
30000;SDS011;16845;48.670;9.000;2023-09-07T04:17:09;7.82;;;6.78;;
30000;SDS011;16845;48.670;9.000;2023-09-07T04:19:35;8.20;;;6.65;;
30000;SDS011;16845;48.670;9.000;2023-09-07T04:22:02;9.50;;;7.30;;
30000;SDS011;16845;48.670;9.000;2023-09-07T04:24:28;8.50;;;5.93;;
30000;SDS011;16845;48.670;9.000;2023-09-07T04:26:58;7.50;;;6.13;;
30000;SDS011;16845;48.670;9.000;2023-09-07T04:29:25;9.27;;;7.00;;
30000;SDS011;16845;48.670;9.000;2023-09-07T04:31:52;11.05;;;7.38;;
30000;SDS011;16845;48.670;9.000;2023-09-07T04:34:20;13.88;;;7.32;;
30000;SDS011;16845;48.670;9.000;2023-09-07T04:39:13;6.88;;;6.20;;
30000;SDS011;16845;48.670;9.000;2023-09-07T04:41:39;8.25;;;5.72;;
30000;SDS011;16845;48.670;9.000;2023-09-07T04:44:06;13.63;;;6.72;;
30000;SDS011;16845;48.670;9.000;2023-09-07T04:46:33;8.63;;;7.03;;
30000;SDS011;16845;48.670;9.000;2023-09-07T04:49:01;8.68;;;6.05;;
30000;SDS011;16845;48.670;9.000;2023-09-07T04:51:27;7.55;;;6.80;;
30000;SDS011;16845;48.670;9.000;2023-09-07T04:53:53;8.32;;;6.75;;
30000;SDS011;16845;48.670;9.000;2023-09-07T04:56:20;13.80;;;6.80;;
30000;SDS011;16845;48.670;9.000;2023-09-07T04:58:47;12.93;;;7.07;;
30000;SDS011;16845;48.670;9.000;2023-09-07T05:01:13;12.13;;;7.00;;
30000;SDS011;16845;48.670;9.000;2023-09-07T05:03:40;9.80;;;6.93;;
30000;SDS011;16845;48.670;9.000;2023-09-07T05:06:08;8.37;;;6.67;;
30000;SDS011;16845;48.670;9.000;2023-09-07T05:08:34;9.70;;;6.13;;
30000;SDS011;16845;48.670;9.000;2023-09-07T05:11:02;9.95;;;6.45;;
30000;SDS011;16845;48.670;9.000;2023-09-07T05:13:29;9.00;;;6.60;;
30000;SDS011;16845;48.670;9.000;2023-09-07T05:15:57;6.65;;;5.95;;
30000;SDS011;16845;48.670;9.000;2023-09-07T05:18:25;9.18;;;6.47;;
30000;SDS011;16845;48.670;9.000;2023-09-07T05:20:51;8.13;;;6.20;;
30000;SDS011;16845;48.670;9.000;2023-09-07T05:23:19;10.10;;;6.83;;
30000;SDS011;16845;48.670;9.000;2023-09-07T05:25:47;11.82;;;6.88;;
30000;SDS011;16845;48.670;9.000;2023-09-07T05:28:14;6.82;;;5.78;;
30000;SDS011;16845;48.670;9.000;2023-09-07T05:30:41;9.00;;;6.10;;
30000;SDS011;16845;48.670;9.000;2023-09-07T05:33:08;7.47;;;6.03;;
30000;SDS011;16845;48.670;9.000;2023-09-07T05:35:35;8.07;;;6.03;;
30000;SDS011;16845;48.670;9.000;2023-09-07T05:38:02;9.88;;;6.68;;
30000;SDS011;16845;48.670;9.000;2023-09-07T05:40:30;8.57;;;5.70;;
30000;SDS011;16845;48.670;9.000;2023-09-07T05:43:00;6.53;;;5.82;;
30000;SDS011;16845;48.670;9.000;2023-09-07T05:45:26;7.80;;;6.50;;
30000;SDS011;16845;48.670;9.000;2023-09-07T05:47:53;7.72;;;6.75;;
30000;SDS011;16845;48.670;9.000;2023-09-07T05:50:19;11.03;;;7.67;;
30000;SDS011;16845;48.670;9.000;2023-09-07T05:52:46;8.85;;;6.82;;
30000;SDS011;16845;48.670;9.000;2023-09-07T05:55:12;9.63;;;6.72;;
30000;SDS011;16845;48.670;9.000;2023-09-07T05:57:40;7.93;;;6.63;;
30000;SDS011;16845;48.670;9.000;2023-09-07T06:00:07;8.48;;;6.82;;
30000;SDS011;16845;48.670;9.000;2023-09-07T06:02:35;8.55;;;6.63;;
30000;SDS011;16845;48.670;9.000;2023-09-07T06:05:01;9.40;;;6.13;;
30000;SDS011;16845;48.670;9.000;2023-09-07T06:07:28;10.23;;;6.57;;
30000;SDS011;16845;48.670;9.000;2023-09-07T06:09:55;7.40;;;6.18;;
30000;SDS011;16845;48.670;9.000;2023-09-07T06:12:21;9.73;;;7.13;;
30000;SDS011;16845;48.670;9.000;2023-09-07T06:14:49;6.67;;;5.77;;
30000;SDS011;16845;48.670;9.000;2023-09-07T06:17:15;8.48;;;6.55;;
30000;SDS011;16845;48.670;9.000;2023-09-07T06:19:42;7.10;;;6.20;;
30000;SDS011;16845;48.670;9.000;2023-09-07T06:22:08;15.27;;;6.93;;
30000;SDS011;16845;48.670;9.000;2023-09-07T06:24:35;9.43;;;6.50;;
30000;SDS011;16845;48.670;9.000;2023-09-07T06:27:02;7.68;;;5.80;;
30000;SDS011;16845;48.670;9.000;2023-09-07T06:29:28;7.38;;;6.28;;
30000;SDS011;16845;48.670;9.000;2023-09-07T06:31:56;7.32;;;5.80;;
30000;SDS011;16845;48.670;9.000;2023-09-07T06:34:23;6.28;;;5.20;;
30000;SDS011;16845;48.670;9.000;2023-09-07T06:36:49;8.33;;;6.23;;
30000;SDS011;16845;48.670;9.000;2023-09-07T06:39:16;6.40;;;4.95;;
30000;SDS011;16845;48.670;9.000;2023-09-07T06:41:44;8.48;;;5.97;;
30000;SDS011;16845;48.670;9.000;2023-09-07T06:44:12;9.18;;;5.50;;
30000;SDS011;16845;48.670;9.000;2023-09-07T06:46:38;8.13;;;5.63;;
30000;SDS011;16845;48.670;9.000;2023-09-07T06:49:06;7.75;;;4.93;;
30000;SDS011;16845;48.670;9.000;2023-09-07T06:51:33;6.07;;;4.80;;
30000;SDS011;16845;48.670;9.000;2023-09-07T06:53:59;6.50;;;5.17;;
30000;SDS011;16845;48.670;9.000;2023-09-07T06:56:26;6.50;;;4.67;;
30000;SDS011;16845;48.670;9.000;2023-09-07T06:58:53;7.88;;;4.72;;
30000;SDS011;16845;48.670;9.000;2023-09-07T07:01:20;7.15;;;5.40;;
30000;SDS011;16845;48.670;9.000;2023-09-07T07:03:47;9.80;;;5.20;;
30000;SDS011;16845;48.670;9.000;2023-09-07T07:06:15;7.45;;;4.95;;
30000;SDS011;16845;48.670;9.000;2023-09-07T07:08:42;7.13;;;5.00;;
30000;SDS011;16845;48.670;9.000;2023-09-07T07:11:08;6.90;;;4.13;;
30000;SDS011;16845;48.670;9.000;2023-09-07T07:13:34;9.37;;;4.77;;
30000;SDS011;16845;48.670;9.000;2023-09-07T07:16:01;7.40;;;4.37;;
30000;SDS011;16845;48.670;9.000;2023-09-07T07:18:37;7.22;;;4.72;;
30000;SDS011;16845;48.670;9.000;2023-09-07T07:21:03;4.73;;;4.30;;
30000;SDS011;16845;48.670;9.000;2023-09-07T07:23:31;10.83;;;4.97;;
30000;SDS011;16845;48.670;9.000;2023-09-07T07:25:58;6.80;;;4.22;;
30000;SDS011;16845;48.670;9.000;2023-09-07T07:28:24;19.55;;;5.40;;
30000;SDS011;16845;48.670;9.000;2023-09-07T07:30:51;7.03;;;4.90;;
30000;SDS011;16845;48.670;9.000;2023-09-07T07:33:17;9.83;;;4.97;;
30000;SDS011;16845;48.670;9.000;2023-09-07T07:35:44;10.05;;;5.28;;
30000;SDS011;16845;48.670;9.000;2023-09-07T07:38:11;7.78;;;4.20;;
30000;SDS011;16845;48.670;9.000;2023-09-07T07:40:39;6.40;;;4.97;;
30000;SDS011;16845;48.670;9.000;2023-09-07T07:43:05;6.60;;;4.85;;
30000;SDS011;16845;48.670;9.000;2023-09-07T07:45:32;8.07;;;4.10;;
30000;SDS011;16845;48.670;9.000;2023-09-07T07:47:58;5.13;;;4.63;;
30000;SDS011;16845;48.670;9.000;2023-09-07T07:50:25;7.87;;;5.47;;
30000;SDS011;16845;48.670;9.000;2023-09-07T07:52:51;6.13;;;5.53;;
30000;SDS011;16845;48.670;9.000;2023-09-07T07:55:18;8.05;;;5.47;;
30000;SDS011;16845;48.670;9.000;2023-09-07T07:57:46;6.90;;;4.53;;
30000;SDS011;16845;48.670;9.000;2023-09-07T08:00:13;13.50;;;5.75;;
30000;SDS011;16845;48.670;9.000;2023-09-07T08:02:40;6.20;;;4.68;;
30000;SDS011;16845;48.670;9.000;2023-09-07T08:05:06;5.47;;;4.50;;
30000;SDS011;16845;48.670;9.000;2023-09-07T08:07:33;6.25;;;4.70;;
30000;SDS011;16845;48.670;9.000;2023-09-07T08:10:00;10.27;;;5.68;;
30000;SDS011;16845;48.670;9.000;2023-09-07T08:12:26;10.43;;;5.33;;
30000;SDS011;16845;48.670;9.000;2023-09-07T08:14:54;6.40;;;5.37;;
30000;SDS011;16845;48.670;9.000;2023-09-07T08:17:21;7.28;;;5.07;;
30000;SDS011;16845;48.670;9.000;2023-09-07T08:19:47;7.07;;;5.60;;
30000;SDS011;16845;48.670;9.000;2023-09-07T08:22:14;6.67;;;6.00;;
30000;SDS011;16845;48.670;9.000;2023-09-07T08:24:40;7.73;;;5.43;;
30000;SDS011;16845;48.670;9.000;2023-09-07T08:27:07;7.70;;;5.30;;
30000;SDS011;16845;48.670;9.000;2023-09-07T08:29:33;7.07;;;5.55;;
30000;SDS011;16845;48.670;9.000;2023-09-07T08:32:01;7.25;;;5.53;;
30000;SDS011;16845;48.670;9.000;2023-09-07T08:34:28;7.53;;;5.15;;
30000;SDS011;16845;48.670;9.000;2023-09-07T08:36:54;7.03;;;5.73;;
30000;SDS011;16845;48.670;9.000;2023-09-07T08:39:21;9.07;;;5.77;;
30000;SDS011;16845;48.670;9.000;2023-09-07T08:41:48;8.23;;;5.45;;
30000;SDS011;16845;48.670;9.000;2023-09-07T08:44:27;7.05;;;5.80;;
30000;SDS011;16845;48.670;9.000;2023-09-07T08:46:55;9.95;;;5.68;;
30000;SDS011;16845;48.670;9.000;2023-09-07T08:49:23;8.25;;;5.00;;
30000;SDS011;16845;48.670;9.000;2023-09-07T08:51:50;6.20;;;5.45;;
30000;SDS011;16845;48.670;9.000;2023-09-07T08:54:17;6.82;;;5.47;;
30000;SDS011;16845;48.670;9.000;2023-09-07T08:56:45;8.02;;;5.78;;
30000;SDS011;16845;48.670;9.000;2023-09-07T08:59:13;6.72;;;4.35;;
30000;SDS011;16845;48.670;9.000;2023-09-07T09:01:39;9.87;;;4.93;;
30000;SDS011;16845;48.670;9.000;2023-09-07T09:04:06;7.88;;;5.20;;
30000;SDS011;16845;48.670;9.000;2023-09-07T09:06:35;4.78;;;4.38;;
30000;SDS011;16845;48.670;9.000;2023-09-07T09:09:01;8.27;;;6.03;;
30000;SDS011;16845;48.670;9.000;2023-09-07T09:11:28;8.70;;;5.40;;
30000;SDS011;16845;48.670;9.000;2023-09-07T09:13:55;8.03;;;5.03;;
30000;SDS011;16845;48.670;9.000;2023-09-07T09:16:21;6.03;;;4.78;;
30000;SDS011;16845;48.670;9.000;2023-09-07T09:18:48;8.83;;;6.37;;
30000;SDS011;16845;48.670;9.000;2023-09-07T09:21:15;6.47;;;5.38;;
30000;SDS011;16845;48.670;9.000;2023-09-07T09:23:43;7.83;;;5.67;;
30000;SDS011;16845;48.670;9.000;2023-09-07T09:26:09;7.25;;;4.85;;
30000;SDS011;16845;48.670;9.000;2023-09-07T09:31:03;9.57;;;5.85;;
30000;SDS011;16845;48.670;9.000;2023-09-07T09:33:30;6.80;;;5.97;;
30000;SDS011;16845;48.670;9.000;2023-09-07T09:35:57;5.40;;;4.90;;
30000;SDS011;16845;48.670;9.000;2023-09-07T09:38:23;5.90;;;4.85;;
30000;SDS011;16845;48.670;9.000;2023-09-07T09:40:52;6.25;;;4.90;;
30000;SDS011;16845;48.670;9.000;2023-09-07T09:43:19;7.25;;;4.50;;
30000;SDS011;16845;48.670;9.000;2023-09-07T09:45:45;10.50;;;5.28;;
30000;SDS011;16845;48.670;9.000;2023-09-07T09:48:12;6.22;;;5.30;;
30000;SDS011;16845;48.670;9.000;2023-09-07T09:50:39;4.80;;;4.30;;
30000;SDS011;16845;48.670;9.000;2023-09-07T09:53:06;6.38;;;5.75;;
30000;SDS011;16845;48.670;9.000;2023-09-07T09:55:33;6.88;;;4.97;;
30000;SDS011;16845;48.670;9.000;2023-09-07T09:58:01;8.82;;;5.28;;
30000;SDS011;16845;48.670;9.000;2023-09-07T10:00:28;6.35;;;4.78;;
30000;SDS011;16845;48.670;9.000;2023-09-07T10:02:58;8.27;;;4.88;;
30000;SDS011;16845;48.670;9.000;2023-09-07T10:05:28;4.88;;;4.15;;
30000;SDS011;16845;48.670;9.000;2023-09-07T10:07:59;5.63;;;5.07;;
30000;SDS011;16845;48.670;9.000;2023-09-07T10:10:31;6.80;;;4.43;;
30000;SDS011;16845;48.670;9.000;2023-09-07T10:12:59;10.10;;;5.07;;
30000;SDS011;16845;48.670;9.000;2023-09-07T10:15:28;7.88;;;5.05;;
30000;SDS011;16845;48.670;9.000;2023-09-07T10:18:08;11.95;;;5.53;;
30000;SDS011;16845;48.670;9.000;2023-09-07T10:20:51;11.65;;;5.20;;
30000;SDS011;16845;48.670;9.000;2023-09-07T10:23:21;6.00;;;5.00;;
30000;SDS011;16845;48.670;9.000;2023-09-07T10:25:49;7.38;;;4.97;;
30000;SDS011;16845;48.670;9.000;2023-09-07T10:28:19;8.75;;;5.00;;
30000;SDS011;16845;48.670;9.000;2023-09-07T10:30:46;6.38;;;5.45;;
30000;SDS011;16845;48.670;9.000;2023-09-07T10:33:24;8.95;;;4.93;;
30000;SDS011;16845;48.670;9.000;2023-09-07T10:35:51;9.18;;;4.32;;
30000;SDS011;16845;48.670;9.000;2023-09-07T10:38:17;5.17;;;4.13;;
30000;SDS011;16845;48.670;9.000;2023-09-07T10:40:44;9.10;;;4.97;;
30000;SDS011;16845;48.670;9.000;2023-09-07T10:43:11;5.35;;;4.50;;
30000;SDS011;16845;48.670;9.000;2023-09-07T10:45:39;8.88;;;5.53;;
30000;SDS011;16845;48.670;9.000;2023-09-07T10:48:06;5.05;;;4.55;;
30000;SDS011;16845;48.670;9.000;2023-09-07T10:50:42;7.63;;;4.85;;
30000;SDS011;16845;48.670;9.000;2023-09-07T10:53:09;5.45;;;4.85;;
30000;SDS011;16845;48.670;9.000;2023-09-07T10:55:39;7.32;;;5.03;;
30000;SDS011;16845;48.670;9.000;2023-09-07T10:58:06;7.72;;;5.03;;
30000;SDS011;16845;48.670;9.000;2023-09-07T11:00:32;4.28;;;3.88;;
30000;SDS011;16845;48.670;9.000;2023-09-07T11:03:06;7.77;;;5.43;;
30000;SDS011;16845;48.670;9.000;2023-09-07T11:05:33;6.93;;;4.68;;
30000;SDS011;16845;48.670;9.000;2023-09-07T11:08:01;6.30;;;5.70;;
30000;SDS011;16845;48.670;9.000;2023-09-07T11:10:28;7.72;;;5.20;;
30000;SDS011;16845;48.670;9.000;2023-09-07T11:13:01;6.95;;;5.40;;
30000;SDS011;16845;48.670;9.000;2023-09-07T11:15:29;5.75;;;5.07;;
30000;SDS011;16845;48.670;9.000;2023-09-07T11:17:55;6.30;;;5.13;;
30000;SDS011;16845;48.670;9.000;2023-09-07T11:20:24;5.75;;;5.25;;
30000;SDS011;16845;48.670;9.000;2023-09-07T11:22:50;10.43;;;5.47;;
30000;SDS011;16845;48.670;9.000;2023-09-07T11:25:33;8.88;;;5.63;;
30000;SDS011;16845;48.670;9.000;2023-09-07T11:28:01;11.82;;;5.47;;
30000;SDS011;16845;48.670;9.000;2023-09-07T11:30:28;6.40;;;5.32;;
30000;SDS011;16845;48.670;9.000;2023-09-07T11:33:00;6.67;;;5.00;;
30000;SDS011;16845;48.670;9.000;2023-09-07T11:35:28;8.57;;;5.10;;
30000;SDS011;16845;48.670;9.000;2023-09-07T11:37:55;10.85;;;5.50;;
30000;SDS011;16845;48.670;9.000;2023-09-07T11:40:21;5.18;;;3.97;;
30000;SDS011;16845;48.670;9.000;2023-09-07T11:42:51;10.75;;;5.30;;
30000;SDS011;16845;48.670;9.000;2023-09-07T11:45:18;10.68;;;4.85;;
30000;SDS011;16845;48.670;9.000;2023-09-07T11:47:44;7.13;;;5.43;;
30000;SDS011;16845;48.670;9.000;2023-09-07T11:50:11;9.82;;;5.75;;
30000;SDS011;16845;48.670;9.000;2023-09-07T11:52:39;8.43;;;5.30;;
30000;SDS011;16845;48.670;9.000;2023-09-07T11:55:06;7.97;;;5.97;;
30000;SDS011;16845;48.670;9.000;2023-09-07T11:59:59;11.85;;;5.60;;
30000;SDS011;16845;48.670;9.000;2023-09-07T12:02:26;11.73;;;5.75;;
30000;SDS011;16845;48.670;9.000;2023-09-07T12:04:52;8.50;;;5.45;;
30000;SDS011;16845;48.670;9.000;2023-09-07T12:07:19;5.97;;;5.37;;
30000;SDS011;16845;48.670;9.000;2023-09-07T12:09:48;8.25;;;5.80;;
30000;SDS011;16845;48.670;9.000;2023-09-07T12:15:07;6.93;;;5.07;;
30000;SDS011;16845;48.670;9.000;2023-09-07T12:17:34;7.30;;;5.00;;
30000;SDS011;16845;48.670;9.000;2023-09-07T12:20:01;5.78;;;4.72;;
30000;SDS011;16845;48.670;9.000;2023-09-07T12:22:28;8.75;;;5.60;;
30000;SDS011;16845;48.670;9.000;2023-09-07T12:24:56;9.02;;;5.43;;
30000;SDS011;16845;48.670;9.000;2023-09-07T12:27:40;6.03;;;5.00;;
30000;SDS011;16845;48.670;9.000;2023-09-07T12:30:20;5.75;;;4.50;;
30000;SDS011;16845;48.670;9.000;2023-09-07T12:32:47;9.05;;;5.10;;
30000;SDS011;16845;48.670;9.000;2023-09-07T12:35:14;5.05;;;4.43;;
30000;SDS011;16845;48.670;9.000;2023-09-07T12:37:40;7.53;;;4.53;;
30000;SDS011;16845;48.670;9.000;2023-09-07T12:40:09;6.93;;;4.25;;
30000;SDS011;16845;48.670;9.000;2023-09-07T12:42:41;8.70;;;4.32;;
30000;SDS011;16845;48.670;9.000;2023-09-07T12:45:08;8.55;;;4.70;;
30000;SDS011;16845;48.670;9.000;2023-09-07T12:47:36;10.70;;;4.72;;
30000;SDS011;16845;48.670;9.000;2023-09-07T12:50:02;7.25;;;4.15;;
30000;SDS011;16845;48.670;9.000;2023-09-07T12:52:29;7.35;;;4.07;;
30000;SDS011;16845;48.670;9.000;2023-09-07T12:55:00;6.18;;;3.90;;
30000;SDS011;16845;48.670;9.000;2023-09-07T13:02:20;7.22;;;4.00;;
30000;SDS011;16845;48.670;9.000;2023-09-07T13:07:13;6.70;;;4.50;;
30000;SDS011;16845;48.670;9.000;2023-09-07T13:09:43;4.72;;;3.90;;
30000;SDS011;16845;48.670;9.000;2023-09-07T13:12:10;7.45;;;3.92;;
30000;SDS011;16845;48.670;9.000;2023-09-07T13:14:38;8.38;;;4.03;;
30000;SDS011;16845;48.670;9.000;2023-09-07T13:17:04;5.60;;;3.38;;
30000;SDS011;16845;48.670;9.000;2023-09-07T13:21:57;5.13;;;3.45;;
30000;SDS011;16845;48.670;9.000;2023-09-07T13:24:23;3.55;;;3.25;;
30000;SDS011;16845;48.670;9.000;2023-09-07T13:26:50;8.15;;;3.47;;
30000;SDS011;16845;48.670;9.000;2023-09-07T13:29:17;3.95;;;3.53;;
30000;SDS011;16845;48.670;9.000;2023-09-07T13:31:45;10.95;;;4.20;;
30000;SDS011;16845;48.670;9.000;2023-09-07T13:34:11;12.95;;;10.18;;
30000;SDS011;16845;48.670;9.000;2023-09-07T13:36:38;9.32;;;4.85;;
30000;SDS011;16845;48.670;9.000;2023-09-07T13:39:04;6.78;;;4.05;;
30000;SDS011;16845;48.670;9.000;2023-09-07T13:41:31;8.25;;;4.00;;
30000;SDS011;16845;48.670;9.000;2023-09-07T13:43:57;11.82;;;5.88;;
30000;SDS011;16845;48.670;9.000;2023-09-07T13:46:24;6.18;;;4.57;;
30000;SDS011;16845;48.670;9.000;2023-09-07T13:48:52;4.65;;;3.65;;
30000;SDS011;16845;48.670;9.000;2023-09-07T13:51:18;9.18;;;4.05;;
30000;SDS011;16845;48.670;9.000;2023-09-07T13:53:45;4.35;;;3.80;;
30000;SDS011;16845;48.670;9.000;2023-09-07T13:56:11;5.47;;;4.63;;
30000;SDS011;16845;48.670;9.000;2023-09-07T13:58:38;5.80;;;4.93;;
30000;SDS011;16845;48.670;9.000;2023-09-07T14:01:05;9.90;;;4.93;;
30000;SDS011;16845;48.670;9.000;2023-09-07T14:03:31;5.47;;;4.78;;
30000;SDS011;16845;48.670;9.000;2023-09-07T14:05:59;5.20;;;4.70;;
30000;SDS011;16845;48.670;9.000;2023-09-07T14:08:26;7.80;;;4.63;;
30000;SDS011;16845;48.670;9.000;2023-09-07T14:10:53;8.57;;;5.50;;
30000;SDS011;16845;48.670;9.000;2023-09-07T14:13:19;9.97;;;5.57;;
30000;SDS011;16845;48.670;9.000;2023-09-07T14:15:46;4.90;;;3.50;;
30000;SDS011;16845;48.670;9.000;2023-09-07T14:18:12;4.97;;;4.47;;
30000;SDS011;16845;48.670;9.000;2023-09-07T14:20:39;12.32;;;4.88;;
30000;SDS011;16845;48.670;9.000;2023-09-07T14:23:07;7.90;;;4.63;;
30000;SDS011;16845;48.670;9.000;2023-09-07T14:25:33;7.97;;;4.53;;
30000;SDS011;16845;48.670;9.000;2023-09-07T14:30:27;5.60;;;4.53;;
30000;SDS011;16845;48.670;9.000;2023-09-07T14:32:53;7.27;;;3.90;;
30000;SDS011;16845;48.670;9.000;2023-09-07T14:35:20;3.92;;;3.17;;
30000;SDS011;16845;48.670;9.000;2023-09-07T14:37:46;6.97;;;4.20;;
30000;SDS011;16845;48.670;9.000;2023-09-07T14:40:14;13.07;;;4.73;;
30000;SDS011;16845;48.670;9.000;2023-09-07T14:42:41;5.90;;;4.13;;
30000;SDS011;16845;48.670;9.000;2023-09-07T14:45:07;8.17;;;4.00;;
30000;SDS011;16845;48.670;9.000;2023-09-07T14:50:01;6.35;;;4.35;;
30000;SDS011;16845;48.670;9.000;2023-09-07T14:52:27;6.50;;;4.83;;
30000;SDS011;16845;48.670;9.000;2023-09-07T14:54:54;7.47;;;4.87;;
30000;SDS011;16845;48.670;9.000;2023-09-07T14:57:22;7.57;;;4.27;;
30000;SDS011;16845;48.670;9.000;2023-09-07T14:59:48;10.70;;;5.90;;
30000;SDS011;16845;48.670;9.000;2023-09-07T15:02:15;5.37;;;4.77;;
30000;SDS011;16845;48.670;9.000;2023-09-07T15:04:41;4.57;;;4.10;;
30000;SDS011;16845;48.670;9.000;2023-09-07T15:07:25;11.70;;;4.53;;
30000;SDS011;16845;48.670;9.000;2023-09-07T15:10:09;7.82;;;4.35;;
30000;SDS011;16845;48.670;9.000;2023-09-07T15:12:55;6.13;;;5.03;;
30000;SDS011;16845;48.670;9.000;2023-09-07T15:15:38;11.50;;;4.35;;